sensor_id;sensor_type;location;lat;lon;timestamp;pressure;altitude;pressure_sealevel;temperature;humidity
63700;BME280;49845;47.130;142.766;2023-04-02T00:00:15;101713.75;;;1.70;71.37
63700;BME280;49845;47.130;142.766;2023-04-02T00:02:58;101789.66;;;2.18;71.05
63700;BME280;49845;47.130;142.766;2023-04-02T00:05:41;101780.97;;;2.15;70.92
63700;BME280;49845;47.130;142.766;2023-04-02T00:08:25;101784.81;;;2.25;70.67
63700;BME280;49845;47.130;142.766;2023-04-02T00:11:00;101700.69;;;1.87;69.98
63700;BME280;49845;47.130;142.766;2023-04-02T00:13:35;101768.88;;;2.56;69.74
63700;BME280;49845;47.130;142.766;2023-04-02T00:16:12;101786.75;;;2.73;69.14
63700;BME280;49845;47.130;142.766;2023-04-02T00:18:47;101777.16;;;2.91;68.69
63700;BME280;49845;47.130;142.766;2023-04-02T00:21:22;101777.03;;;2.88;68.77
63700;BME280;49845;47.130;142.766;2023-04-02T00:23:54;101770.25;;;2.90;68.54
63700;BME280;49845;47.130;142.766;2023-04-02T00:26:31;101715.41;;;2.52;68.30
63700;BME280;49845;47.130;142.766;2023-04-02T00:29:03;101777.53;;;3.00;68.56
63700;BME280;49845;47.130;142.766;2023-04-02T00:31:38;101769.50;;;3.17;68.73
63700;BME280;49845;47.130;142.766;2023-04-02T00:34:16;101771.19;;;3.15;67.64
63700;BME280;49845;47.130;142.766;2023-04-02T00:36:47;101701.34;;;2.89;67.88
63700;BME280;49845;47.130;142.766;2023-04-02T00:39:21;101759.31;;;3.20;66.82
63700;BME280;49845;47.130;142.766;2023-04-02T00:41:56;101723.69;;;3.11;67.07
63700;BME280;49845;47.130;142.766;2023-04-02T00:44:37;101766.31;;;3.46;67.14
63700;BME280;49845;47.130;142.766;2023-04-02T00:47:14;101736.47;;;3.55;67.51
63700;BME280;49845;47.130;142.766;2023-04-02T00:49:52;101763.19;;;3.79;66.62
63700;BME280;49845;47.130;142.766;2023-04-02T00:52:26;101757.72;;;3.96;66.46
63700;BME280;49845;47.130;142.766;2023-04-02T00:55:03;101753.16;;;4.14;66.19
63700;BME280;49845;47.130;142.766;2023-04-02T00:57:41;101749.25;;;4.25;65.74
63700;BME280;49845;47.130;142.766;2023-04-02T01:00:19;101746.31;;;4.42;65.49
63700;BME280;49845;47.130;142.766;2023-04-02T01:03:24;101756.78;;;4.45;65.07
63700;BME280;49845;47.130;142.766;2023-04-02T01:06:00;101737.25;;;4.27;64.91
63700;BME280;49845;47.130;142.766;2023-04-02T01:08:46;101748.09;;;4.43;65.26
63700;BME280;49845;47.130;142.766;2023-04-02T01:11:35;101755.41;;;4.56;65.05
63700;BME280;49845;47.130;142.766;2023-04-02T01:14:14;101748.03;;;4.68;65.31
63700;BME280;49845;47.130;142.766;2023-04-02T01:16:50;101739.97;;;4.59;64.16
63700;BME280;49845;47.130;142.766;2023-04-02T01:22:37;101726.50;;;4.69;64.57
63700;BME280;49845;47.130;142.766;2023-04-02T01:25:14;101738.72;;;4.73;64.87
63700;BME280;49845;47.130;142.766;2023-04-02T01:27:51;101730.00;;;4.71;64.25
63700;BME280;49845;47.130;142.766;2023-04-02T01:30:27;101655.72;;;4.40;64.48
63700;BME280;49845;47.130;142.766;2023-04-02T01:32:57;101726.78;;;4.79;64.45
63700;BME280;49845;47.130;142.766;2023-04-02T01:35:32;101725.88;;;5.05;64.88
63700;BME280;49845;47.130;142.766;2023-04-02T01:38:09;101678.72;;;4.87;64.82
63700;BME280;49845;47.130;142.766;2023-04-02T01:40:46;101719.19;;;5.13;64.05
63700;BME280;49845;47.130;142.766;2023-04-02T01:43:22;101706.78;;;5.03;63.67
63700;BME280;49845;47.130;142.766;2023-04-02T01:45:58;101708.81;;;5.13;63.63
63700;BME280;49845;47.130;142.766;2023-04-02T01:48:29;101716.94;;;5.24;63.32
63700;BME280;49845;47.130;142.766;2023-04-02T01:51:05;101701.91;;;5.12;63.46
63700;BME280;49845;47.130;142.766;2023-04-02T01:53:36;101709.88;;;5.20;63.81
63700;BME280;49845;47.130;142.766;2023-04-02T01:56:07;101707.66;;;5.34;64.30
63700;BME280;49845;47.130;142.766;2023-04-02T01:58:37;101701.00;;;5.42;62.65
63700;BME280;49845;47.130;142.766;2023-04-02T02:01:12;101695.94;;;5.47;62.15
63700;BME280;49845;47.130;142.766;2023-04-02T02:03:45;101583.69;;;4.86;62.45
63700;BME280;49845;47.130;142.766;2023-04-02T02:06:17;101624.97;;;5.11;61.53
63700;BME280;49845;47.130;142.766;2023-04-02T02:08:50;101685.94;;;5.60;62.12
63700;BME280;49845;47.130;142.766;2023-04-02T02:11:26;101683.78;;;5.77;62.79
63700;BME280;49845;47.130;142.766;2023-04-02T02:13:59;101644.69;;;5.70;62.49
63700;BME280;49845;47.130;142.766;2023-04-02T02:16:34;101683.66;;;6.04;61.83
63700;BME280;49845;47.130;142.766;2023-04-02T02:19:19;101681.56;;;6.24;61.88
63700;BME280;49845;47.130;142.766;2023-04-02T02:21:53;101665.16;;;6.27;61.60
63700;BME280;49845;47.130;142.766;2023-04-02T02:24:25;101675.69;;;6.33;61.00
63700;BME280;49845;47.130;142.766;2023-04-02T02:27:07;101674.06;;;6.38;60.62
63700;BME280;49845;47.130;142.766;2023-04-02T02:29:49;101681.00;;;6.38;60.60
63700;BME280;49845;47.130;142.766;2023-04-02T02:32:26;101673.59;;;6.56;61.87
63700;BME280;49845;47.130;142.766;2023-04-02T02:35:03;101672.81;;;6.59;60.84
63700;BME280;49845;47.130;142.766;2023-04-02T02:37:39;101661.47;;;6.55;59.81
63700;BME280;49845;47.130;142.766;2023-04-02T02:40:16;101660.69;;;6.58;59.75
63700;BME280;49845;47.130;142.766;2023-04-02T02:42:51;101643.06;;;6.44;59.98
63700;BME280;49845;47.130;142.766;2023-04-02T02:45:26;101618.78;;;6.42;61.32
63700;BME280;49845;47.130;142.766;2023-04-02T02:48:00;101647.25;;;6.77;60.27
63700;BME280;49845;47.130;142.766;2023-04-02T02:50:32;101640.00;;;6.64;59.63
63700;BME280;49845;47.130;142.766;2023-04-02T02:53:09;101624.38;;;6.61;59.49
63700;BME280;49845;47.130;142.766;2023-04-02T02:55:43;101640.66;;;6.54;59.82
63700;BME280;49845;47.130;142.766;2023-04-02T02:58:18;101622.75;;;6.66;59.36
63700;BME280;49845;47.130;142.766;2023-04-02T03:00:51;101620.09;;;6.63;59.75
63700;BME280;49845;47.130;142.766;2023-04-02T03:03:27;101624.84;;;6.82;59.87
63700;BME280;49845;47.130;142.766;2023-04-02T03:06:02;101627.03;;;7.05;60.01
63700;BME280;49845;47.130;142.766;2023-04-02T03:08:36;101631.50;;;7.12;59.03
63700;BME280;49845;47.130;142.766;2023-04-02T03:11:13;101606.44;;;7.16;59.24
63700;BME280;49845;47.130;142.766;2023-04-02T03:13:48;101610.13;;;7.28;58.93
63700;BME280;49845;47.130;142.766;2023-04-02T03:16:23;101606.75;;;7.32;58.81
63700;BME280;49845;47.130;142.766;2023-04-02T03:19:04;101599.09;;;7.40;58.01
63700;BME280;49845;47.130;142.766;2023-04-02T03:21:40;101595.97;;;7.60;57.48
63700;BME280;49845;47.130;142.766;2023-04-02T03:24:18;101598.75;;;7.70;57.45
63700;BME280;49845;47.130;142.766;2023-04-02T03:26:55;101580.84;;;7.90;59.07
63700;BME280;49845;47.130;142.766;2023-04-02T03:29:30;101574.00;;;7.94;57.47
63700;BME280;49845;47.130;142.766;2023-04-02T03:32:05;101568.94;;;8.05;55.99
63700;BME280;49845;47.130;142.766;2023-04-02T03:34:41;101571.78;;;8.23;56.89
63700;BME280;49845;47.130;142.766;2023-04-02T03:37:17;101571.66;;;8.12;53.98
63700;BME280;49845;47.130;142.766;2023-04-02T03:39:53;101558.84;;;8.28;56.88
63700;BME280;49845;47.130;142.766;2023-04-02T03:42:27;101572.09;;;8.43;55.46
63700;BME280;49845;47.130;142.766;2023-04-02T03:45:02;101561.19;;;8.09;53.68
63700;BME280;49845;47.130;142.766;2023-04-02T03:47:37;101550.19;;;7.69;54.11
63700;BME280;49845;47.130;142.766;2023-04-02T03:50:13;101548.28;;;7.59;54.44
63700;BME280;49845;47.130;142.766;2023-04-02T03:52:46;101555.22;;;7.60;55.19
63700;BME280;49845;47.130;142.766;2023-04-02T03:55:20;101490.34;;;7.16;56.97
63700;BME280;49845;47.130;142.766;2023-04-02T03:57:57;101549.31;;;7.70;55.56
63700;BME280;49845;47.130;142.766;2023-04-02T04:00:35;101506.94;;;7.77;57.72
63700;BME280;49845;47.130;142.766;2023-04-02T04:03:11;101536.13;;;8.17;57.24
63700;BME280;49845;47.130;142.766;2023-04-02T04:05:48;101532.78;;;8.26;56.46
63700;BME280;49845;47.130;142.766;2023-04-02T04:08:22;101518.88;;;8.26;56.45
63700;BME280;49845;47.130;142.766;2023-04-02T04:10:57;101538.31;;;8.48;56.91
63700;BME280;49845;47.130;142.766;2023-04-02T04:13:30;101531.59;;;8.67;56.63
63700;BME280;49845;47.130;142.766;2023-04-02T04:16:07;101523.06;;;8.83;56.00
63700;BME280;49845;47.130;142.766;2023-04-02T04:18:43;101513.50;;;8.79;54.77
63700;BME280;49845;47.130;142.766;2023-04-02T04:21:20;101482.78;;;8.52;55.02
63700;BME280;49845;47.130;142.766;2023-04-02T04:24:01;101483.34;;;8.31;53.10
63700;BME280;49845;47.130;142.766;2023-04-02T04:26:38;101514.09;;;8.55;55.12
63700;BME280;49845;47.130;142.766;2023-04-02T04:29:18;101500.09;;;8.48;55.29
63700;BME280;49845;47.130;142.766;2023-04-02T04:31:55;101510.72;;;8.65;54.95
63700;BME280;49845;47.130;142.766;2023-04-02T04:34:31;101513.41;;;8.73;55.63
63700;BME280;49845;47.130;142.766;2023-04-02T04:37:17;101513.50;;;8.79;55.34
63700;BME280;49845;47.130;142.766;2023-04-02T04:39:55;101482.13;;;8.70;54.20
63700;BME280;49845;47.130;142.766;2023-04-02T04:42:29;101510.88;;;8.77;52.75
63700;BME280;49845;47.130;142.766;2023-04-02T04:45:08;101474.63;;;8.26;52.74
63700;BME280;49845;47.130;142.766;2023-04-02T04:47:48;101490.53;;;8.44;54.95
63700;BME280;49845;47.130;142.766;2023-04-02T04:50:27;101502.81;;;8.57;53.79
63700;BME280;49845;47.130;142.766;2023-04-02T04:53:07;101464.19;;;8.26;51.80
63700;BME280;49845;47.130;142.766;2023-04-02T04:55:44;101491.84;;;8.14;51.89
63700;BME280;49845;47.130;142.766;2023-04-02T04:58:20;101473.44;;;8.04;52.77
63700;BME280;49845;47.130;142.766;2023-04-02T05:00:59;101389.47;;;7.50;51.59
63700;BME280;49845;47.130;142.766;2023-04-02T05:03:36;101482.75;;;7.85;52.26
63700;BME280;49845;47.130;142.766;2023-04-02T05:06:11;101372.56;;;7.20;52.19
63700;BME280;49845;47.130;142.766;2023-04-02T05:08:48;101464.56;;;7.88;52.63
63700;BME280;49845;47.130;142.766;2023-04-02T05:11:25;101482.13;;;8.03;51.85
63700;BME280;49845;47.130;142.766;2023-04-02T05:14:00;101478.09;;;8.25;54.16
63700;BME280;49845;47.130;142.766;2023-04-02T05:16:37;101469.31;;;8.16;51.31
63700;BME280;49845;47.130;142.766;2023-04-02T05:19:11;101474.41;;;8.10;50.87
63700;BME280;49845;47.130;142.766;2023-04-02T05:21:47;101464.72;;;7.98;51.69
63700;BME280;49845;47.130;142.766;2023-04-02T05:27:30;101461.00;;;8.45;54.70
63700;BME280;49845;47.130;142.766;2023-04-02T05:30:09;101452.72;;;8.86;57.49
63700;BME280;49845;47.130;142.766;2023-04-02T05:32:46;101479.00;;;9.04;54.54
63700;BME280;49845;47.130;142.766;2023-04-02T05:35:23;101428.53;;;8.99;54.51
63700;BME280;49845;47.130;142.766;2023-04-02T05:37:58;101462.69;;;9.28;51.37
63700;BME280;49845;47.130;142.766;2023-04-02T05:40:36;101467.91;;;9.30;51.73
63700;BME280;49845;47.130;142.766;2023-04-02T05:43:12;101449.63;;;9.27;51.19
63700;BME280;49845;47.130;142.766;2023-04-02T05:45:52;101455.59;;;9.12;54.02
63700;BME280;49845;47.130;142.766;2023-04-02T05:48:27;101459.75;;;8.93;53.72
63700;BME280;49845;47.130;142.766;2023-04-02T05:51:01;101461.31;;;8.76;55.07
63700;BME280;49845;47.130;142.766;2023-04-02T05:53:33;101380.94;;;8.29;56.23
63700;BME280;49845;47.130;142.766;2023-04-02T05:56:14;101457.88;;;8.77;55.32
63700;BME280;49845;47.130;142.766;2023-04-02T05:58:53;101448.91;;;8.50;55.42
63700;BME280;49845;47.130;142.766;2023-04-02T06:01:31;101461.81;;;8.39;55.14
63700;BME280;49845;47.130;142.766;2023-04-02T06:04:12;101460.78;;;8.30;56.04
63700;BME280;49845;47.130;142.766;2023-04-02T06:06:53;101458.97;;;8.23;56.53
63700;BME280;49845;47.130;142.766;2023-04-02T06:09:35;101466.56;;;8.06;55.45
63700;BME280;49845;47.130;142.766;2023-04-02T06:12:17;101463.78;;;7.92;55.93
63700;BME280;49845;47.130;142.766;2023-04-02T06:14:53;101453.19;;;7.80;56.53
63700;BME280;49845;47.130;142.766;2023-04-02T06:17:24;101454.06;;;7.80;57.01
63700;BME280;49845;47.130;142.766;2023-04-02T06:19:59;101429.28;;;7.44;56.86
63700;BME280;49845;47.130;142.766;2023-04-02T06:22:34;101457.88;;;7.46;56.47
63700;BME280;49845;47.130;142.766;2023-04-02T06:25:12;101451.78;;;7.42;57.38
63700;BME280;49845;47.130;142.766;2023-04-02T06:27:48;101456.00;;;7.35;58.50
63700;BME280;49845;47.130;142.766;2023-04-02T06:30:24;101448.72;;;7.15;58.87
63700;BME280;49845;47.130;142.766;2023-04-02T06:32:57;101457.34;;;7.13;59.10
63700;BME280;49845;47.130;142.766;2023-04-02T06:35:28;101457.41;;;7.15;59.45
63700;BME280;49845;47.130;142.766;2023-04-02T06:38:02;101453.59;;;6.95;58.61
63700;BME280;49845;47.130;142.766;2023-04-02T06:40:39;101457.63;;;6.79;59.11
63700;BME280;49845;47.130;142.766;2023-04-02T06:43:16;101447.63;;;6.52;59.17
63700;BME280;49845;47.130;142.766;2023-04-02T06:45:54;101463.31;;;6.58;60.23
63700;BME280;49845;47.130;142.766;2023-04-02T06:48:28;101466.91;;;6.66;60.39
63700;BME280;49845;47.130;142.766;2023-04-02T06:51:04;101464.22;;;6.61;59.95
63700;BME280;49845;47.130;142.766;2023-04-02T06:53:38;101470.91;;;6.47;60.45
63700;BME280;49845;47.130;142.766;2023-04-02T06:56:19;101441.63;;;6.12;60.55
63700;BME280;49845;47.130;142.766;2023-04-02T06:58:51;101472.63;;;6.05;60.52
63700;BME280;49845;47.130;142.766;2023-04-02T07:01:31;101467.13;;;5.93;61.35
63700;BME280;49845;47.130;142.766;2023-04-02T07:04:03;101475.50;;;5.80;62.20
63700;BME280;49845;47.130;142.766;2023-04-02T07:06:33;101472.97;;;5.83;62.10
63700;BME280;49845;47.130;142.766;2023-04-02T07:09:08;101471.63;;;5.62;62.25
63700;BME280;49845;47.130;142.766;2023-04-02T07:11:38;101487.13;;;5.59;62.93
63700;BME280;49845;47.130;142.766;2023-04-02T07:14:10;101485.84;;;5.42;63.17
63700;BME280;49845;47.130;142.766;2023-04-02T07:16:43;101476.00;;;5.29;63.15
63700;BME280;49845;47.130;142.766;2023-04-02T07:19:17;101452.84;;;5.00;63.01
63700;BME280;49845;47.130;142.766;2023-04-02T07:21:49;101484.19;;;5.09;64.29
63700;BME280;49845;47.130;142.766;2023-04-02T07:24:20;101473.81;;;5.09;64.38
63700;BME280;49845;47.130;142.766;2023-04-02T07:26:51;101471.91;;;5.02;64.08
63700;BME280;49845;47.130;142.766;2023-04-02T07:29:21;101487.44;;;5.02;64.71
63700;BME280;49845;47.130;142.766;2023-04-02T07:31:53;101488.94;;;4.94;64.27
63700;BME280;49845;47.130;142.766;2023-04-02T07:34:24;101470.94;;;4.65;64.40
63700;BME280;49845;47.130;142.766;2023-04-02T07:36:55;101489.19;;;4.70;65.28
63700;BME280;49845;47.130;142.766;2023-04-02T07:39:26;101490.06;;;4.70;65.66
63700;BME280;49845;47.130;142.766;2023-04-02T07:41:59;101489.56;;;4.52;65.72
63700;BME280;49845;47.130;142.766;2023-04-02T07:44:29;101483.41;;;4.48;66.03
63700;BME280;49845;47.130;142.766;2023-04-02T07:47:02;101492.25;;;4.26;66.76
63700;BME280;49845;47.130;142.766;2023-04-02T07:49:33;101483.25;;;4.12;67.21
63700;BME280;49845;47.130;142.766;2023-04-02T07:52:03;101486.34;;;4.02;67.29
63700;BME280;49845;47.130;142.766;2023-04-02T07:54:34;101490.34;;;3.91;67.63
63700;BME280;49845;47.130;142.766;2023-04-02T07:57:05;101459.56;;;3.71;68.48
63700;BME280;49845;47.130;142.766;2023-04-02T07:59:39;101487.75;;;3.91;68.55
63700;BME280;49845;47.130;142.766;2023-04-02T08:02:18;101480.56;;;3.80;68.45
63700;BME280;49845;47.130;142.766;2023-04-02T08:04:51;101440.72;;;3.46;68.63
63700;BME280;49845;47.130;142.766;2023-04-02T08:07:22;101488.56;;;3.61;68.74
63700;BME280;49845;47.130;142.766;2023-04-02T08:09:54;101490.56;;;3.42;69.25
63700;BME280;49845;47.130;142.766;2023-04-02T08:12:25;101493.00;;;3.38;69.82
63700;BME280;49845;47.130;142.766;2023-04-02T08:14:57;101501.31;;;3.29;70.16
63700;BME280;49845;47.130;142.766;2023-04-02T08:17:31;101490.53;;;3.15;70.70
63700;BME280;49845;47.130;142.766;2023-04-02T08:20:03;101506.19;;;3.20;70.80
63700;BME280;49845;47.130;142.766;2023-04-02T08:22:36;101500.91;;;3.17;71.31
63700;BME280;49845;47.130;142.766;2023-04-02T08:25:08;101516.41;;;3.17;71.21
63700;BME280;49845;47.130;142.766;2023-04-02T08:27:40;101470.16;;;2.99;71.61
63700;BME280;49845;47.130;142.766;2023-04-02T08:30:13;101522.41;;;3.16;71.47
63700;BME280;49845;47.130;142.766;2023-04-02T08:32:46;101501.72;;;2.90;71.79
63700;BME280;49845;47.130;142.766;2023-04-02T08:35:18;101503.13;;;2.80;71.73
63700;BME280;49845;47.130;142.766;2023-04-02T08:37:51;101517.41;;;2.71;72.09
63700;BME280;49845;47.130;142.766;2023-04-02T08:40:26;101518.31;;;2.49;72.27
63700;BME280;49845;47.130;142.766;2023-04-02T08:43:25;101522.44;;;2.21;72.68
63700;BME280;49845;47.130;142.766;2023-04-02T08:46:05;101517.22;;;1.97;73.79
63700;BME280;49845;47.130;142.766;2023-04-02T08:48:44;101498.28;;;1.95;74.16
63700;BME280;49845;47.130;142.766;2023-04-02T08:51:22;101418.19;;;1.45;74.39
63700;BME280;49845;47.130;142.766;2023-04-02T08:53:58;101520.00;;;2.02;74.91
63700;BME280;49845;47.130;142.766;2023-04-02T08:56:35;101519.00;;;1.98;74.87
63700;BME280;49845;47.130;142.766;2023-04-02T08:59:16;101518.03;;;1.73;75.07
63700;BME280;49845;47.130;142.766;2023-04-02T09:01:53;101518.69;;;1.47;75.60
63700;BME280;49845;47.130;142.766;2023-04-02T09:04:30;101526.81;;;1.35;76.28
63700;BME280;49845;47.130;142.766;2023-04-02T09:07:05;101520.72;;;1.33;76.73
63700;BME280;49845;47.130;142.766;2023-04-02T09:09:37;101526.50;;;1.27;76.67
63700;BME280;49845;47.130;142.766;2023-04-02T09:12:17;101525.22;;;1.18;77.43
63700;BME280;49845;47.130;142.766;2023-04-02T09:15:04;101529.63;;;1.20;77.30
63700;BME280;49845;47.130;142.766;2023-04-02T09:17:45;101534.63;;;1.17;77.07
63700;BME280;49845;47.130;142.766;2023-04-02T09:20:24;101537.38;;;1.01;77.36
63700;BME280;49845;47.130;142.766;2023-04-02T09:22:56;101519.38;;;0.81;78.16
63700;BME280;49845;47.130;142.766;2023-04-02T09:25:29;101498.88;;;0.63;78.43
63700;BME280;49845;47.130;142.766;2023-04-02T09:28:02;101562.56;;;0.89;78.73
63700;BME280;49845;47.130;142.766;2023-04-02T09:30:44;101561.91;;;0.93;78.81
63700;BME280;49845;47.130;142.766;2023-04-02T09:33:41;101567.97;;;0.95;78.96
63700;BME280;49845;47.130;142.766;2023-04-02T09:36:32;101578.16;;;0.92;78.16
63700;BME280;49845;47.130;142.766;2023-04-02T09:39:05;101563.28;;;0.65;78.52
63700;BME280;49845;47.130;142.766;2023-04-02T09:41:37;101568.25;;;0.62;78.92
63700;BME280;49845;47.130;142.766;2023-04-02T09:44:28;101565.84;;;0.65;79.22
63700;BME280;49845;47.130;142.766;2023-04-02T09:47:01;101552.00;;;0.43;78.94
63700;BME280;49845;47.130;142.766;2023-04-02T09:49:34;101583.88;;;0.47;79.42
63700;BME280;49845;47.130;142.766;2023-04-02T09:52:19;101489.41;;;-0.14;79.81
63700;BME280;49845;47.130;142.766;2023-04-02T09:55:17;101569.88;;;0.60;80.46
63700;BME280;49845;47.130;142.766;2023-04-02T09:57:50;101539.28;;;0.47;80.08
63700;BME280;49845;47.130;142.766;2023-04-02T10:00:36;101575.19;;;0.63;79.76
63700;BME280;49845;47.130;142.766;2023-04-02T10:03:22;101569.19;;;0.45;79.82
63700;BME280;49845;47.130;142.766;2023-04-02T10:06:10;101564.38;;;0.15;79.65
63700;BME280;49845;47.130;142.766;2023-04-02T10:08:44;101583.41;;;0.18;80.66
63700;BME280;49845;47.130;142.766;2023-04-02T10:11:18;101587.31;;;0.28;81.17
63700;BME280;49845;47.130;142.766;2023-04-02T10:14:01;101576.31;;;0.13;80.71
63700;BME280;49845;47.130;142.766;2023-04-02T10:16:35;101589.16;;;0.13;80.51
63700;BME280;49845;47.130;142.766;2023-04-02T10:19:13;101588.06;;;0.08;80.98
63700;BME280;49845;47.130;142.766;2023-04-02T10:21:49;101588.41;;;-0.03;80.75
63700;BME280;49845;47.130;142.766;2023-04-02T10:24:26;101588.78;;;-0.13;81.83
63700;BME280;49845;47.130;142.766;2023-04-02T10:27:06;101590.91;;;-0.22;82.21
63700;BME280;49845;47.130;142.766;2023-04-02T10:29:53;101599.78;;;-0.33;82.17
63700;BME280;49845;47.130;142.766;2023-04-02T10:32:34;101599.63;;;-0.36;82.74
63700;BME280;49845;47.130;142.766;2023-04-02T10:35:13;101593.63;;;-0.37;82.90
63700;BME280;49845;47.130;142.766;2023-04-02T10:40:49;101598.72;;;-0.55;83.65
63700;BME280;49845;47.130;142.766;2023-04-02T10:43:59;101615.16;;;-0.51;83.79
63700;BME280;49845;47.130;142.766;2023-04-02T10:46:55;101621.91;;;-0.53;84.21
63700;BME280;49845;47.130;142.766;2023-04-02T10:49:37;101624.94;;;-0.60;84.53
63700;BME280;49845;47.130;142.766;2023-04-02T10:52:17;101620.16;;;-0.71;84.76
63700;BME280;49845;47.130;142.766;2023-04-02T10:54:51;101622.88;;;-0.68;84.94
63700;BME280;49845;47.130;142.766;2023-04-02T10:57:35;101623.44;;;-0.73;84.76
63700;BME280;49845;47.130;142.766;2023-04-02T11:00:16;101607.13;;;-0.92;85.11
63700;BME280;49845;47.130;142.766;2023-04-02T11:02:55;101626.84;;;-0.74;85.13
63700;BME280;49845;47.130;142.766;2023-04-02T11:05:31;101645.78;;;-0.72;85.20
63700;BME280;49845;47.130;142.766;2023-04-02T11:08:14;101616.41;;;-0.77;85.62
63700;BME280;49845;47.130;142.766;2023-04-02T11:10:48;101629.69;;;-0.68;85.35
63700;BME280;49845;47.130;142.766;2023-04-02T11:13:25;101586.91;;;-0.85;85.29
63700;BME280;49845;47.130;142.766;2023-04-02T11:16:01;101633.38;;;-0.47;85.42
63700;BME280;49845;47.130;142.766;2023-04-02T11:18:35;101581.75;;;-0.85;85.12
63700;BME280;49845;47.130;142.766;2023-04-02T11:21:07;101633.78;;;-0.55;85.34
63700;BME280;49845;47.130;142.766;2023-04-02T11:23:56;101568.06;;;-1.02;85.54
63700;BME280;49845;47.130;142.766;2023-04-02T11:26:33;101621.41;;;-0.62;86.09
63700;BME280;49845;47.130;142.766;2023-04-02T11:29:18;101637.72;;;-0.62;86.40
63700;BME280;49845;47.130;142.766;2023-04-02T11:32:11;101613.44;;;-0.69;86.79
63700;BME280;49845;47.130;142.766;2023-04-02T11:35:01;101632.03;;;-0.56;87.33
63700;BME280;49845;47.130;142.766;2023-04-02T11:37:36;101599.81;;;-0.84;86.99
63700;BME280;49845;47.130;142.766;2023-04-02T11:40:44;101625.97;;;-0.75;88.18
63700;BME280;49845;47.130;142.766;2023-04-02T11:46:43;101617.97;;;-0.63;88.66
63700;BME280;49845;47.130;142.766;2023-04-02T11:49:37;101601.47;;;-0.68;88.79
63700;BME280;49845;47.130;142.766;2023-04-02T11:52:21;101613.50;;;-0.67;88.61
63700;BME280;49845;47.130;142.766;2023-04-02T11:55:14;101584.03;;;-0.92;89.13
63700;BME280;49845;47.130;142.766;2023-04-02T11:58:09;101624.75;;;-0.81;89.10
63700;BME280;49845;47.130;142.766;2023-04-02T12:00:56;101626.19;;;-0.87;89.29
63700;BME280;49845;47.130;142.766;2023-04-02T12:03:55;101622.53;;;-0.92;89.56
63700;BME280;49845;47.130;142.766;2023-04-02T12:06:51;101615.22;;;-1.00;89.83
63700;BME280;49845;47.130;142.766;2023-04-02T12:09:41;101604.69;;;-1.05;90.54
63700;BME280;49845;47.130;142.766;2023-04-02T12:12:21;101626.06;;;-0.90;90.51
63700;BME280;49845;47.130;142.766;2023-04-02T12:14:55;101625.72;;;-0.96;90.47
63700;BME280;49845;47.130;142.766;2023-04-02T12:17:29;101633.34;;;-0.97;90.74
63700;BME280;49845;47.130;142.766;2023-04-02T12:20:18;101629.56;;;-0.88;91.10
63700;BME280;49845;47.130;142.766;2023-04-02T12:22:54;101630.47;;;-0.87;91.00
63700;BME280;49845;47.130;142.766;2023-04-02T12:25:26;101630.84;;;-0.96;90.70
63700;BME280;49845;47.130;142.766;2023-04-02T12:28:14;101652.34;;;-0.94;90.97
63700;BME280;49845;47.130;142.766;2023-04-02T12:30:48;101629.09;;;-0.97;91.16
63700;BME280;49845;47.130;142.766;2023-04-02T12:33:30;101607.78;;;-1.12;91.41
63700;BME280;49845;47.130;142.766;2023-04-02T12:36:05;101620.91;;;-0.90;91.85
63700;BME280;49845;47.130;142.766;2023-04-02T12:38:44;101612.25;;;-0.92;91.97
63700;BME280;49845;47.130;142.766;2023-04-02T12:41:25;101603.75;;;-0.91;91.24
63700;BME280;49845;47.130;142.766;2023-04-02T12:43:59;101624.75;;;-0.81;91.21
63700;BME280;49845;47.130;142.766;2023-04-02T12:46:32;101611.44;;;-0.74;91.36
63700;BME280;49845;47.130;142.766;2023-04-02T12:49:06;101590.47;;;-1.00;90.77
63700;BME280;49845;47.130;142.766;2023-04-02T12:51:39;101605.03;;;-0.99;90.52
63700;BME280;49845;47.130;142.766;2023-04-02T12:54:14;101613.56;;;-1.00;90.68
63700;BME280;49845;47.130;142.766;2023-04-02T12:56:44;101615.94;;;-1.03;91.15
63700;BME280;49845;47.130;142.766;2023-04-02T12:59:33;101610.03;;;-1.02;91.10
63700;BME280;49845;47.130;142.766;2023-04-02T13:02:17;101605.19;;;-0.96;91.08
63700;BME280;49845;47.130;142.766;2023-04-02T13:04:48;101512.88;;;-1.61;90.93
63700;BME280;49845;47.130;142.766;2023-04-02T13:07:36;101582.50;;;-1.21;91.54
63700;BME280;49845;47.130;142.766;2023-04-02T13:10:24;101614.97;;;-1.05;91.47
63700;BME280;49845;47.130;142.766;2023-04-02T13:12:57;101624.03;;;-1.12;91.17
63700;BME280;49845;47.130;142.766;2023-04-02T13:15:30;101615.59;;;-1.25;91.25
63700;BME280;49845;47.130;142.766;2023-04-02T13:18:04;101606.41;;;-1.22;91.88
63700;BME280;49845;47.130;142.766;2023-04-02T13:20:41;101608.97;;;-1.22;92.53
63700;BME280;49845;47.130;142.766;2023-04-02T13:23:32;101618.97;;;-1.10;91.80
63700;BME280;49845;47.130;142.766;2023-04-02T13:26:14;101614.97;;;-1.05;92.52
63700;BME280;49845;47.130;142.766;2023-04-02T13:28:56;101612.97;;;-1.11;91.41
63700;BME280;49845;47.130;142.766;2023-04-02T13:31:26;101613.69;;;-1.13;91.28
63700;BME280;49845;47.130;142.766;2023-04-02T13:33:57;101617.69;;;-1.18;91.39
63700;BME280;49845;47.130;142.766;2023-04-02T13:36:28;101622.03;;;-1.17;91.78
63700;BME280;49845;47.130;142.766;2023-04-02T13:39:02;101614.66;;;-1.11;91.79
63700;BME280;49845;47.130;142.766;2023-04-02T13:41:42;101581.00;;;-1.34;91.34